McChord Air Force Base
KTCM : now visible

Airfield :











YOU CAN JOIN US ON...

 
LOGIN :

Register | Disclaimer

   EN    FR    IT 

 









Legend :    VFR   Marginal VFR   IFR   Intensive IFR   Very Intensive IFR
Visi :
Ceiling :
>= 8 km
>= 3000ft
5 to 8 km
1000 to 3000 ft
1500m to 5 km
500 to 1000 ft
800 to 1500m
200 to 500 ft
< 800m
< 200 ft
Symbols :   Thunderstorms  Fog  Heavy snow  Heavy precipitations  Wind > 20 kt






- Airport Elevation : 322 ft


KTCM - McChord Air Force Base

CURRENT METAR :
  • 210658Z AUTO 18005KT 10SM FEW017 FEW085 07/05 A3010 RMK AO2 SLP197 T00690054 $

EXPIRED METARs :
  • 210558Z AUTO 18005KT 10SM CLR 07/05 A3010 RMK AO2 SLP198 T00700051 10145 20055 58005 $
  • 210458Z AUTO 17006KT 10SM CLR 06/05 A3011 RMK AO2 SLP201 T00600048 $

TAF TAF KTCM
Valid from the 21 at 05:00 until the 22 at 11:00 UTC


210502Z 2105/2211 VRB04KT 9999 OVC035 QNH3010INS
TEMPO 2106/2110 OVC015
BECMG 2111/2112 24008KT 9999 OVC015 QNH3008INS
BECMG 2115/2116 26010KT 9999 BKN030 QNH3008INS
BECMG 2122/2123 02006KT 9999 BKN035 QNH3012INS TX11/2123Z TN04/2113Z
KZSE FIR / North America



MET'MAP, your aeronautical weather chart ! - Copyright ORBIFLY December 2007 - Disclaimer

ORBIFLY MET'MAP TEAM :

Programming & Development : Alexandra Zaïnal
Concept & original design : Baudouin d'Aumeries
Assistance for programming : Marc-Olivier Méhu
Technical & hardware support : Manuel Goepfert

Contact : metmap@orbifly.com




SOURCES & CREDITS :

   NOAA       Earth
Advisory